Time;durP1;ratioP1;P1;durP2;ratioP2;P2;SDS_P1;SDS_P2;PMS_P1;PMS_P2;Temp;Humidity;BMP_temperature;BMP_pressure;BME280_temperature;BME280_humidity;BME280_pressure;Samples;Min_cycle;Max_cycle;Signal;HPM_P1;HPM_P2
2023/01/28 00:00:49;;;;;;;15.85;10.43;;;1.30;99.90;;;;;;4995534;28;20453;-68
2023/01/28 00:03:15;;;;;;;15.68;9.85;;;1.30;99.90;;;;;;4993407;28;20046;-68
2023/01/28 00:05:41;;;;;;;15.02;11.15;;;1.30;99.90;;;;;;4992811;28;20034;-68
2023/01/28 00:08:07;;;;;;;13.60;10.23;;;1.30;99.90;;;;;;4994648;28;20041;-68
2023/01/28 00:10:33;;;;;;;16.30;11.23;;;1.30;99.90;;;;;;4992868;28;20700;-68
2023/01/28 00:12:59;;;;;;;16.00;11.73;;;1.40;99.90;;;;;;4987697;28;20492;-68
2023/01/28 00:15:25;;;;;;;14.15;11.05;;;1.30;99.90;;;;;;4990922;28;20041;-68
2023/01/28 00:17:51;;;;;;;12.07;9.60;;;1.30;99.90;;;;;;4991474;28;20045;-68
2023/01/28 00:20:17;;;;;;;14.15;9.77;;;1.20;99.90;;;;;;4991834;28;20799;-68
2023/01/28 00:22:47;;;;;;;13.82;10.25;;;1.20;99.90;;;;;;4973809;28;20483;-68
2023/01/28 00:25:13;;;;;;;13.50;10.10;;;1.20;99.90;;;;;;4986857;28;20041;-68
2023/01/28 00:27:39;;;;;;;12.38;10.00;;;1.20;99.90;;;;;;4988307;28;20038;-69
2023/01/28 00:30:06;;;;;;;11.75;9.63;;;1.20;99.90;;;;;;4988337;28;20054;-68
2023/01/28 00:32:31;;;;;;;12.55;9.75;;;1.20;99.90;;;;;;4983727;28;20553;-69
2023/01/28 00:34:57;;;;;;;12.02;9.07;;;1.20;99.90;;;;;;4988509;28;20034;-69
2023/01/28 00:37:23;;;;;;;12.85;10.05;;;1.10;99.90;;;;;;4984657;28;20030;-69
2023/01/28 00:39:49;;;;;;;12.85;9.27;;;1.10;99.90;;;;;;4989867;28;20494;-69
2023/01/28 00:42:15;;;;;;;10.55;8.90;;;1.10;99.90;;;;;;4988169;28;20037;-69
2023/01/28 00:44:41;;;;;;;12.50;8.48;;;1.10;99.90;;;;;;4995101;28;20080;-69
2023/01/28 00:47:06;;;;;;;10.32;7.90;;;1.10;99.90;;;;;;4987141;28;20065;-69
2023/01/28 00:49:32;;;;;;;10.57;8.25;;;1.10;99.90;;;;;;4988159;28;20391;-69
2023/01/28 00:51:58;;;;;;;10.98;8.43;;;1.00;99.90;;;;;;4987525;28;20069;-69
2023/01/28 00:54:24;;;;;;;9.15;8.05;;;1.00;99.90;;;;;;4989307;28;20399;-69
2023/01/28 00:56:52;;;;;;;8.75;7.85;;;1.00;99.90;;;;;;4986096;28;20414;-69
2023/01/28 00:59:18;;;;;;;9.68;8.32;;;1.00;99.90;;;;;;4970611;28;20045;-69
2023/01/28 01:01:44;;;;;;;9.82;7.57;;;1.00;99.90;;;;;;4972216;28;20396;-69
2023/01/28 01:04:10;;;;;;;8.75;7.85;;;1.00;99.90;;;;;;4987352;28;20510;-69
2023/01/28 01:06:38;;;;;;;8.23;7.40;;;1.00;99.90;;;;;;4988638;28;20107;-69
2023/01/28 01:09:07;;;;;;;9.85;7.95;;;1.00;99.90;;;;;;4987552;28;20033;-69
2023/01/28 01:11:33;;;;;;;9.27;7.82;;;1.00;99.90;;;;;;4983998;28;20049;-69
2023/01/28 01:14:00;;;;;;;8.18;7.38;;;0.90;99.90;;;;;;4977609;28;20081;-69
2023/01/28 01:16:35;;;;;;;8.60;6.40;;;1.00;99.90;;;;;;4977918;28;20466;-69
2023/01/28 01:19:00;;;;;;;7.80;6.95;;;0.90;99.90;;;;;;5010689;28;20030;-69
2023/01/28 01:21:28;;;;;;;7.60;6.80;;;1.00;99.90;;;;;;4976998;28;20044;-69
2023/01/28 01:23:54;;;;;;;10.02;7.30;;;0.90;99.90;;;;;;4994598;28;20473;-69
2023/01/28 01:26:20;;;;;;;8.20;6.82;;;0.90;99.90;;;;;;4992338;28;20124;-69
2023/01/28 01:28:46;;;;;;;8.25;6.90;;;0.90;99.90;;;;;;4990761;28;20038;-69
2023/01/28 01:31:18;;;;;;;11.10;7.82;;;0.90;99.90;;;;;;4991280;28;20046;-69
2023/01/28 01:33:46;;;;;;;9.98;7.90;;;0.90;99.90;;;;;;5010891;28;20046;-69
2023/01/28 01:36:13;;;;;;;8.55;7.65;;;0.90;99.90;;;;;;4994281;28;20041;-69
2023/01/28 01:38:39;;;;;;;9.25;7.50;;;0.90;99.90;;;;;;5010795;28;20051;-69
2023/01/28 01:41:06;;;;;;;13.85;7.70;;;0.90;99.90;;;;;;4976510;28;20132;-69
2023/01/28 01:43:51;;;;;;;10.68;8.40;;;0.90;99.90;;;;;;4962131;28;20049;-69
2023/01/28 01:46:39;;;;;;;10.48;8.15;;;0.90;99.90;;;;;;4990565;28;20153;-69
2023/01/28 01:49:27;;;;;;;9.73;8.15;;;0.90;99.90;;;;;;4996521;28;20053;-69
2023/01/28 01:52:05;;;;;;;9.52;8.02;;;0.90;99.90;;;;;;4994458;28;20410;-69
2023/01/28 01:54:32;;;;;;;9.75;7.75;;;0.90;99.90;;;;;;4988138;28;20122;-69
2023/01/28 01:56:59;;;;;;;9.73;7.53;;;0.90;99.90;;;;;;4993293;28;20038;-69
2023/01/28 01:59:28;;;;;;;10.23;7.90;;;0.90;99.90;;;;;;4989578;28;20117;-69
2023/01/28 02:01:55;;;;;;;8.30;7.40;;;0.90;99.90;;;;;;4979967;28;20568;-69
2023/01/28 02:04:40;;;;;;;9.18;7.43;;;1.00;99.90;;;;;;4962802;28;20033;-69
2023/01/28 02:07:08;;;;;;;8.50;6.40;;;0.90;99.90;;;;;;4991552;28;20317;-69
2023/01/28 02:09:36;;;;;;;7.50;6.03;;;0.90;99.90;;;;;;5006136;28;20045;-69
2023/01/28 02:12:10;;;;;;;7.28;5.50;;;1.10;99.90;;;;;;4976339;28;20141;-69
2023/01/28 02:14:40;;;;;;;9.95;6.03;;;1.00;99.90;;;;;;4978509;28;20518;-69
2023/01/28 02:17:07;;;;;;;10.13;5.75;;;0.80;99.90;;;;;;4991884;28;20048;-69
2023/01/28 02:19:40;;;;;;;7.38;5.50;;;1.00;99.90;;;;;;4977910;28;20049;-69
2023/01/28 02:22:24;;;;;;;9.95;5.78;;;0.80;99.90;;;;;;4991262;28;20034;-69
2023/01/28 02:25:22;;;;;;;8.63;6.32;;;0.80;99.90;;;;;;4974898;28;20306;-69
2023/01/28 02:28:14;;;;;;;6.78;5.22;;;0.80;99.90;;;;;;4970681;28;20084;-69
2023/01/28 02:30:59;;;;;;;11.60;6.70;;;0.80;99.90;;;;;;4970970;28;20103;-69
2023/01/28 02:33:49;;;;;;;7.38;5.75;;;0.80;99.90;;;;;;5008911;28;20399;-69
2023/01/28 02:36:27;;;;;;;8.93;5.85;;;0.80;99.90;;;;;;4991331;28;20048;-69
2023/01/28 02:38:57;;;;;;;8.93;6.57;;;0.80;99.90;;;;;;4995294;28;20115;-69
2023/01/28 02:41:37;;;;;;;8.00;5.75;;;0.80;99.90;;;;;;4988202;28;20495;-69
2023/01/28 02:44:04;;;;;;;8.60;6.03;;;0.80;99.90;;;;;;4997849;28;20045;-69
2023/01/28 02:49:34;;;;;;;9.63;6.30;;;0.70;99.90;;;;;;4988276;28;20483;-69
2023/01/28 02:53:39;;;;;;;8.90;6.68;;;0.70;99.90;;;;;;4984177;28;20030;-69
2023/01/28 02:55:42;;;;;;;8.50;6.28;;;0.70;99.90;;;;;;4988459;28;20088;-69
2023/01/28 02:58:18;;;;;;;9.70;6.15;;;0.70;99.90;;;;;;4953748;28;20041;-69
2023/01/28 03:00:56;;;;;;;9.27;6.63;;;0.90;99.90;;;;;;4987370;28;20046;-69
2023/01/28 03:03:43;;;;;;;9.45;6.47;;;0.70;99.90;;;;;;4988887;28;20483;-69
2023/01/28 03:06:14;;;;;;;8.60;6.25;;;0.70;99.90;;;;;;4985298;28;20080;-69
2023/01/28 03:36:49;;;;;;;9.38;6.05;;;0.60;99.90;;;;;;4988322;28;20042;-69
2023/01/28 03:39:25;;;;;;;9.10;6.63;;;0.60;99.90;;;;;;4967837;28;20082;-69
2023/01/28 03:42:13;;;;;;;9.18;6.20;;;0.70;99.90;;;;;;4987244;28;20030;-69
2023/01/28 03:44:51;;;;;;;7.43;5.90;;;0.60;99.90;;;;;;4988926;28;20042;-69
2023/01/28 03:47:19;;;;;;;9.98;6.30;;;0.70;99.90;;;;;;4988562;28;20034;-69
2023/01/28 03:49:48;;;;;;;9.93;6.25;;;0.60;99.90;;;;;;4972830;28;20991;-69
2023/01/28 03:52:15;;;;;;;7.30;5.85;;;0.60;99.90;;;;;;4972182;28;20057;-69
2023/01/28 03:54:41;;;;;;;7.68;6.15;;;0.60;99.90;;;;;;4989350;28;20070;-69
2023/01/28 03:57:07;;;;;;;10.15;6.57;;;0.60;99.90;;;;;;4970105;28;20065;-69
2023/01/28 03:59:33;;;;;;;9.57;6.55;;;0.70;99.90;;;;;;4986463;28;20454;-69
2023/01/28 04:01:59;;;;;;;9.40;5.88;;;0.60;99.90;;;;;;4957831;28;20042;-69
2023/01/28 04:04:25;;;;;;;10.38;5.78;;;0.60;99.90;;;;;;4957306;28;20061;-69
2023/01/28 04:06:51;;;;;;;8.80;6.20;;;0.60;99.90;;;;;;4985351;28;20049;-69
2023/01/28 04:09:17;;;;;;;8.35;5.63;;;0.60;99.90;;;;;;4982915;28;20529;-69
2023/01/28 04:11:43;;;;;;;9.38;5.78;;;0.60;99.90;;;;;;4972192;28;20050;-69
2023/01/28 04:14:09;;;;;;;8.65;6.30;;;0.60;99.90;;;;;;4977217;28;20123;-69
2023/01/28 04:16:35;;;;;;;9.77;7.32;;;0.60;99.90;;;;;;4988257;28;20025;-69
2023/01/28 04:19:00;;;;;;;13.43;6.43;;;0.60;99.90;;;;;;4968145;28;20419;-69
2023/01/28 04:21:26;;;;;;;9.77;6.65;;;0.60;99.90;;;;;;4973588;28;20065;-69
2023/01/28 04:23:52;;;;;;;8.10;6.13;;;0.60;99.90;;;;;;4986380;28;20581;-69
2023/01/28 04:26:17;;;;;;;9.13;6.20;;;0.60;99.90;;;;;;4984828;28;20033;-69
2023/01/28 04:28:44;;;;;;;9.88;6.63;;;0.60;99.90;;;;;;4972680;28;20061;-69
2023/01/28 04:31:09;;;;;;;8.15;6.50;;;0.60;99.90;;;;;;4972270;28;20052;-69
2023/01/28 04:33:35;;;;;;;8.13;6.05;;;0.60;99.90;;;;;;4982148;28;20478;-69
2023/01/28 04:36:01;;;;;;;9.50;6.90;;;0.70;99.90;;;;;;4988856;28;20120;-69
2023/01/28 04:38:27;;;;;;;8.95;6.25;;;0.80;99.90;;;;;;4989554;28;20049;-69
2023/01/28 04:40:53;;;;;;;11.80;7.07;;;0.60;99.90;;;;;;4982960;28;20037;-69
2023/01/28 04:43:20;;;;;;;8.55;6.07;;;0.60;99.90;;;;;;4987462;28;20038;-69
2023/01/28 04:45:46;;;;;;;9.65;6.53;;;0.60;99.90;;;;;;4984214;28;20077;-69
2023/01/28 04:48:12;;;;;;;9.30;6.22;;;0.60;99.90;;;;;;4984444;28;20410;-69
2023/01/28 04:50:38;;;;;;;9.95;6.95;;;0.60;99.90;;;;;;4986967;28;20052;-69
2023/01/28 04:53:04;;;;;;;9.85;6.93;;;0.60;99.90;;;;;;4968180;28;20045;-69
2023/01/28 04:55:30;;;;;;;8.85;6.75;;;0.60;99.90;;;;;;4968360;28;20050;-69
2023/01/28 04:57:55;;;;;;;8.77;6.20;;;0.60;99.90;;;;;;4956691;28;20685;-69
2023/01/28 05:00:21;;;;;;;9.82;6.18;;;0.60;99.90;;;;;;4985378;28;20033;-69
2023/01/28 05:02:47;;;;;;;9.52;6.65;;;0.60;99.90;;;;;;4988065;28;21557;-69
2023/01/28 05:05:13;;;;;;;8.68;6.30;;;0.60;99.90;;;;;;4988574;28;20041;-69
2023/01/28 05:07:38;;;;;;;8.27;5.63;;;0.70;99.90;;;;;;4971886;28;20132;-69
2023/01/28 05:10:05;;;;;;;9.85;5.90;;;0.60;99.90;;;;;;4971575;28;20442;-69
2023/01/28 05:12:32;;;;;;;8.05;6.10;;;0.50;99.90;;;;;;4972098;28;20044;-69
2023/01/28 05:15:00;;;;;;;10.60;6.32;;;0.50;99.90;;;;;;4988158;28;20042;-69
2023/01/28 05:17:26;;;;;;;9.93;6.45;;;0.50;99.90;;;;;;4972310;28;20129;-69
2023/01/28 05:19:52;;;;;;;8.63;6.13;;;0.50;99.90;;;;;;4986902;28;20038;-69
2023/01/28 05:22:18;;;;;;;8.30;6.05;;;0.50;99.90;;;;;;4988365;28;20046;-69
2023/01/28 05:24:44;;;;;;;10.15;6.50;;;0.50;99.90;;;;;;4983795;28;20040;-69
2023/01/28 05:27:09;;;;;;;9.32;6.80;;;0.40;99.90;;;;;;4985810;28;20069;-69
2023/01/28 05:29:35;;;;;;;9.45;6.63;;;0.40;99.90;;;;;;4969893;28;20042;-69
2023/01/28 05:32:01;;;;;;;9.77;6.50;;;0.50;99.90;;;;;;4983853;28;20037;-69
2023/01/28 05:34:26;;;;;;;9.90;6.40;;;0.40;99.90;;;;;;4956799;28;20041;-69
2023/01/28 05:36:52;;;;;;;9.80;6.45;;;0.50;99.90;;;;;;4953813;28;20142;-69
2023/01/28 05:39:18;;;;;;;9.15;6.55;;;0.50;99.90;;;;;;4987312;28;20117;-69
2023/01/28 05:41:44;;;;;;;12.32;6.93;;;0.50;99.90;;;;;;5004429;28;20422;-69
2023/01/28 05:44:09;;;;;;;11.07;6.72;;;0.50;99.90;;;;;;4988118;28;20368;-69
2023/01/28 05:46:35;;;;;;;11.68;7.15;;;0.50;99.90;;;;;;4970630;28;20034;-69
2023/01/28 05:49:01;;;;;;;9.35;6.65;;;0.40;99.90;;;;;;4983713;28;20040;-69
2023/01/28 05:51:27;;;;;;;9.77;6.28;;;0.40;99.90;;;;;;4987758;28;20046;-69
2023/01/28 05:53:53;;;;;;;9.90;5.65;;;0.40;99.90;;;;;;4984006;28;20491;-69
2023/01/28 05:56:18;;;;;;;10.82;6.28;;;0.40;99.90;;;;;;4971044;28;20038;-69
2023/01/28 05:58:44;;;;;;;10.88;7.35;;;0.40;99.90;;;;;;4969950;28;20038;-69
2023/01/28 06:01:12;;;;;;;14.15;8.77;;;0.50;99.90;;;;;;4974701;28;20069;-69
2023/01/28 06:03:38;;;;;;;22.48;10.77;;;0.50;99.90;;;;;;4991255;28;20041;-69
2023/01/28 06:06:04;;;;;;;15.25;9.43;;;0.40;99.90;;;;;;4991717;28;20063;-69
2023/01/28 06:08:30;;;;;;;12.75;8.23;;;0.40;99.90;;;;;;4986316;28;20073;-69
2023/01/28 06:10:56;;;;;;;12.75;8.10;;;0.40;99.90;;;;;;4972181;28;20030;-69
2023/01/28 06:13:21;;;;;;;10.90;7.05;;;0.40;99.90;;;;;;4957750;28;20049;-69
2023/01/28 06:15:50;;;;;;;8.90;6.05;;;0.40;99.90;;;;;;4975819;28;20487;-69
2023/01/28 06:18:16;;;;;;;9.88;6.43;;;0.40;99.90;;;;;;4988310;28;20029;-69
2023/01/28 06:20:42;;;;;;;8.63;6.18;;;0.40;99.90;;;;;;4973281;28;20033;-69
2023/01/28 06:23:07;;;;;;;7.45;5.63;;;0.50;99.90;;;;;;4976883;28;20470;-69
2023/01/28 06:25:33;;;;;;;8.80;6.07;;;0.40;99.90;;;;;;4990437;28;21064;-69
2023/01/28 06:27:59;;;;;;;11.93;7.05;;;0.40;99.90;;;;;;4986680;28;20135;-69
2023/01/28 06:30:24;;;;;;;11.38;7.20;;;0.40;99.90;;;;;;4973222;28;20434;-69
2023/01/28 06:32:55;;;;;;;10.52;7.00;;;0.40;99.90;;;;;;4988904;28;20108;-69
2023/01/28 06:35:21;;;;;;;8.73;5.95;;;0.40;99.90;;;;;;4974109;28;20044;-69
2023/01/28 06:37:46;;;;;;;7.50;5.65;;;0.40;99.90;;;;;;4985590;28;20391;-68
2023/01/28 06:40:14;;;;;;;7.60;6.20;;;0.40;99.90;;;;;;4987475;28;20044;-68
2023/01/28 06:42:40;;;;;;;7.72;5.55;;;0.30;99.90;;;;;;4986943;28;20038;-69
2023/01/28 06:45:06;;;;;;;8.35;5.80;;;0.30;99.90;;;;;;4954439;28;20462;-69
2023/01/28 06:47:32;;;;;;;7.45;5.95;;;0.30;99.90;;;;;;4984807;28;20060;-69
2023/01/28 06:49:58;;;;;;;8.10;5.90;;;0.30;99.90;;;;;;4969515;28;20465;-69
2023/01/28 06:52:23;;;;;;;8.52;5.72;;;0.30;99.90;;;;;;4971973;28;20096;-69
2023/01/28 06:54:49;;;;;;;9.32;5.88;;;0.30;99.90;;;;;;4959228;28;20078;-68
2023/01/28 06:57:15;;;;;;;8.68;6.00;;;0.30;99.90;;;;;;4960019;28;20117;-69
2023/01/28 06:59:40;;;;;;;6.20;4.82;;;0.60;99.90;;;;;;4973340;28;20035;-68
2023/01/28 07:02:08;;;;;;;7.90;5.38;;;0.30;99.90;;;;;;4971474;28;20044;-69
2023/01/28 07:04:34;;;;;;;8.18;6.05;;;0.30;99.90;;;;;;4997413;28;20049;-69
2023/01/28 07:06:59;;;;;;;8.50;6.10;;;0.30;99.90;;;;;;4972075;28;20042;-69
2023/01/28 07:09:25;;;;;;;11.00;6.60;;;0.30;99.90;;;;;;4957350;28;20054;-69
2023/01/28 07:11:51;;;;;;;9.35;6.22;;;0.30;99.90;;;;;;5006617;28;20030;-69
2023/01/28 07:14:16;;;;;;;9.93;6.30;;;0.30;99.90;;;;;;4971872;28;20045;-69
2023/01/28 07:16:42;;;;;;;12.13;6.82;;;0.30;99.90;;;;;;4982586;28;20049;-69
2023/01/28 07:19:08;;;;;;;8.27;5.72;;;-0.40;99.90;;;;;;5003175;28;20029;-69
2023/01/28 07:21:33;;;;;;;7.68;5.68;;;0.30;99.90;;;;;;4970143;28;20093;-69
2023/01/28 07:23:59;;;;;;;9.90;6.93;;;0.30;99.90;;;;;;4987259;28;20042;-69
2023/01/28 07:26:25;;;;;;;9.70;6.65;;;0.30;99.90;;;;;;4973904;28;20038;-69
2023/01/28 07:28:51;;;;;;;10.20;6.57;;;0.30;99.90;;;;;;4985477;28;20414;-69
2023/01/28 07:31:16;;;;;;;11.38;6.25;;;0.30;99.90;;;;;;4973381;28;20107;-69
2023/01/28 07:33:42;;;;;;;9.63;6.60;;;0.30;99.90;;;;;;4989303;28;20042;-69
2023/01/28 07:36:08;;;;;;;9.70;6.57;;;0.30;99.90;;;;;;4983836;28;20038;-69
2023/01/28 07:38:33;;;;;;;13.57;7.15;;;0.30;99.90;;;;;;4972128;28;20348;-69
2023/01/28 07:40:59;;;;;;;14.82;8.05;;;0.30;99.90;;;;;;4986936;28;20069;-68
2023/01/28 07:43:25;;;;;;;12.60;7.80;;;0.40;99.90;;;;;;4985701;28;20537;-69
2023/01/28 07:45:51;;;;;;;13.15;7.60;;;0.40;99.90;;;;;;4989244;28;20065;-69
2023/01/28 07:48:17;;;;;;;12.50;8.02;;;0.40;99.90;;;;;;4972976;28;20122;-69
2023/01/28 07:50:42;;;;;;;11.95;7.65;;;0.40;99.90;;;;;;4973658;28;20038;-69
2023/01/28 07:53:10;;;;;;;13.80;8.55;;;0.50;99.90;;;;;;4989277;28;20206;-69
2023/01/28 07:55:37;;;;;;;13.90;8.20;;;0.40;99.90;;;;;;4971502;28;20387;-69
2023/01/28 07:58:05;;;;;;;19.73;9.32;;;0.40;99.90;;;;;;4973141;28;20124;-69
2023/01/28 08:00:33;;;;;;;14.52;8.90;;;0.40;99.90;;;;;;4989267;28;20125;-69
2023/01/28 08:03:04;;;;;;;16.05;9.80;;;0.40;99.90;;;;;;4972951;28;20053;-68
2023/01/28 08:05:46;;;;;;;16.52;8.98;;;0.50;99.90;;;;;;5004551;28;20034;-69
2023/01/28 08:08:12;;;;;;;15.30;9.00;;;0.50;99.90;;;;;;4972672;28;20390;-69
2023/01/28 08:10:39;;;;;;;17.00;9.55;;;0.40;99.90;;;;;;4986040;28;20155;-68
2023/01/28 08:13:06;;;;;;;14.35;8.90;;;0.50;99.90;;;;;;4988172;28;20050;-69
2023/01/28 08:15:32;;;;;;;14.52;8.98;;;0.50;99.90;;;;;;4983837;28;20111;-69
2023/01/28 08:17:59;;;;;;;13.70;9.20;;;0.50;99.90;;;;;;4988296;28;20045;-69
2023/01/28 08:20:26;;;;;;;15.32;9.60;;;0.50;99.90;;;;;;4990299;28;20042;-69
2023/01/28 08:22:52;;;;;;;13.02;9.38;;;0.50;99.90;;;;;;4986943;28;20041;-69
2023/01/28 08:25:18;;;;;;;14.60;8.10;;;0.60;99.90;;;;;;4985644;28;20538;-69
2023/01/28 08:27:44;;;;;;;13.13;8.73;;;0.60;99.90;;;;;;4988637;28;20132;-69
2023/01/28 08:30:10;;;;;;;12.93;8.50;;;0.60;99.90;;;;;;4987615;28;20125;-69
2023/01/28 08:32:36;;;;;;;12.95;8.07;;;0.50;99.90;;;;;;4977292;28;20041;-69
2023/01/28 08:35:03;;;;;;;13.55;8.63;;;0.50;99.90;;;;;;4983962;28;20111;-68
2023/01/28 08:37:29;;;;;;;15.85;8.95;;;0.50;99.90;;;;;;4994254;28;20518;-67
2023/01/28 08:39:57;;;;;;;16.92;9.85;;;0.50;99.90;;;;;;4987300;28;20046;-69
2023/01/28 08:42:23;;;;;;;12.57;8.07;;;0.60;99.90;;;;;;4987484;28;20049;-69
2023/01/28 08:44:49;;;;;;;13.52;9.15;;;0.60;99.90;;;;;;4993454;28;20045;-69
2023/01/28 08:47:18;;;;;;;23.58;10.35;;;0.70;99.90;;;;;;4993532;28;20073;-69
2023/01/28 08:49:44;;;;;;;13.05;8.50;;;0.70;99.90;;;;;;4991272;28;20101;-69
2023/01/28 08:52:10;;;;;;;13.70;8.70;;;0.70;99.90;;;;;;4978392;28;20495;-69
2023/01/28 08:54:35;;;;;;;12.30;8.70;;;0.80;99.90;;;;;;4992447;28;20034;-68
2023/01/28 08:57:02;;;;;;;13.02;8.25;;;0.90;99.90;;;;;;4972703;28;20407;-69
2023/01/28 08:59:27;;;;;;;12.05;8.02;;;1.20;99.90;;;;;;4986715;28;20448;-68
2023/01/28 09:01:53;;;;;;;11.38;7.63;;;1.60;99.90;;;;;;4972458;28;21196;-69
2023/01/28 09:04:19;;;;;;;11.35;8.30;;;2.00;99.90;;;;;;4992512;28;20130;-69
2023/01/28 09:06:44;;;;;;;13.82;8.32;;;2.50;99.90;;;;;;4987610;28;20131;-69
2023/01/28 09:09:10;;;;;;;13.15;8.85;;;3.40;99.90;;;;;;4961387;28;20046;-69
2023/01/28 09:11:36;;;;;;;10.38;7.82;;;4.30;99.90;;;;;;4970165;28;20511;-69
2023/01/28 09:14:04;;;;;;;12.52;8.68;;;5.10;99.90;;;;;;4974309;28;20763;-69
2023/01/28 09:16:29;;;;;;;11.80;8.13;;;5.80;99.90;;;;;;4975654;28;20041;-69
2023/01/28 09:18:55;;;;;;;10.23;7.45;;;6.40;99.90;;;;;;4995491;28;20104;-69
2023/01/28 09:21:21;;;;;;;13.82;8.07;;;6.90;99.90;;;;;;4977588;28;20117;-69
2023/01/28 09:23:47;;;;;;;10.98;8.20;;;7.30;99.90;;;;;;4957339;28;20045;-69
2023/01/28 09:26:16;;;;;;;10.73;8.13;;;6.60;99.90;;;;;;4991312;28;20038;-69
2023/01/28 09:28:41;;;;;;;11.40;8.45;;;6.10;99.90;;;;;;4990061;28;20365;-69
2023/01/28 09:31:09;;;;;;;10.70;7.38;;;5.80;99.90;;;;;;4990374;28;20042;-69
2023/01/28 09:33:37;;;;;;;11.98;7.88;;;5.50;99.90;;;;;;4990373;28;20503;-69
2023/01/28 09:36:05;;;;;;;9.25;7.35;;;5.20;99.90;;;;;;4994814;28;20069;-69
2023/01/28 09:38:31;;;;;;;10.02;7.90;;;4.80;99.90;;;;;;4995363;28;20038;-69
2023/01/28 09:40:59;;;;;;;10.77;7.80;;;4.50;99.90;;;;;;4993609;28;20042;-69
2023/01/28 09:43:36;;;;;;;10.40;7.88;;;4.40;99.90;;;;;;4994430;28;20045;-69
2023/01/28 09:46:05;;;;;;;11.60;8.70;;;4.10;99.90;;;;;;4995406;28;20042;-69
2023/01/28 09:48:43;;;;;;;13.18;8.90;;;3.90;99.90;;;;;;4997764;28;20394;-69
2023/01/28 09:51:25;;;;;;;12.13;8.05;;;3.70;99.90;;;;;;4981321;28;20041;-69
2023/01/28 09:53:54;;;;;;;13.15;7.22;;;3.40;99.90;;;;;;4994189;28;20034;-69
2023/01/28 09:56:33;;;;;;;9.82;7.20;;;3.30;99.90;;;;;;4970724;28;20050;-69
2023/01/28 09:59:14;;;;;;;11.57;7.97;;;3.10;99.90;;;;;;4987249;28;20038;-69
2023/01/28 10:02:15;;;;;;;10.00;8.00;;;3.10;99.90;;;;;;4990409;28;20038;-69
2023/01/28 10:04:56;;;;;;;11.88;8.05;;;3.20;99.90;;;;;;4987725;28;22242;-69
2023/01/28 10:07:28;;;;;;;12.18;7.75;;;3.10;99.90;;;;;;4970305;28;20034;-69
2023/01/28 10:10:14;;;;;;;11.68;8.13;;;3.00;99.90;;;;;;4993183;28;20045;-69
2023/01/28 10:13:01;;;;;;;13.05;8.77;;;2.90;99.90;;;;;;4990807;28;20571;-69
2023/01/28 10:16:04;;;;;;;10.05;6.70;;;2.80;99.90;;;;;;4990933;28;20034;-69
2023/01/28 10:18:50;;;;;;;;;;;2.80;99.90;;;;;;4992970;28;20161;-69
2023/01/28 10:21:22;;;;;;;12.15;7.55;;;3.20;99.90;;;;;;4989885;28;19971;-69
2023/01/28 10:24:27;;;;;;;9.98;7.68;;;3.80;99.90;;;;;;4992441;28;20045;-69
2023/01/28 10:26:53;;;;;;;11.95;7.85;;;4.30;99.90;;;;;;4989446;28;20606;-69
2023/01/28 10:29:23;;;;;;;9.73;7.85;;;4.80;99.90;;;;;;4991444;28;20109;-69
2023/01/28 10:32:04;;;;;;;10.80;7.40;;;5.20;99.90;;;;;;4997137;28;20046;-69
2023/01/28 10:34:30;;;;;;;11.35;6.55;;;5.00;99.90;;;;;;4988381;28;20042;-69
2023/01/28 10:36:57;;;;;;;10.75;6.68;;;5.00;99.90;;;;;;4988972;28;20049;-69
2023/01/28 10:39:25;;;;;;;10.65;7.28;;;4.90;99.90;;;;;;4990565;28;20034;-69
2023/01/28 10:41:51;;;;;;;9.35;6.53;;;4.80;99.90;;;;;;4990640;28;20069;-69
2023/01/28 10:44:27;;;;;;;9.75;6.28;;;4.50;99.90;;;;;;4989895;28;20423;-69
2023/01/28 10:46:58;;;;;;;9.32;6.85;;;4.30;99.90;;;;;;4989521;28;20149;-69
2023/01/28 10:49:28;;;;;;;9.43;6.97;;;4.00;99.90;;;;;;5007954;28;20495;-69
2023/01/28 10:51:53;;;;;;;9.63;6.88;;;4.00;99.90;;;;;;4989701;28;20038;-69
2023/01/28 10:54:25;;;;;;;11.35;6.68;;;3.90;99.90;;;;;;4973048;28;20049;-69
2023/01/28 10:56:56;;;;;;;8.80;6.32;;;3.80;99.90;;;;;;4990725;28;20041;-69
2023/01/28 10:59:28;;;;;;;10.82;6.68;;;3.50;99.90;;;;;;4985004;28;20483;-69
2023/01/28 11:01:56;;;;;;;12.18;7.15;;;3.50;99.90;;;;;;5007430;28;20033;-69
2023/01/28 11:04:26;;;;;;;9.23;6.90;;;3.50;99.90;;;;;;4974400;28;20049;-69
2023/01/28 11:07:14;;;;;;;9.82;7.13;;;3.50;99.90;;;;;;4997261;28;20042;-69
2023/01/28 11:09:45;;;;;;;10.82;7.28;;;3.60;99.90;;;;;;5008091;28;20049;-69
2023/01/28 11:12:26;;;;;;;9.65;6.55;;;3.70;99.90;;;;;;4974090;28;20040;-69
2023/01/28 11:15:04;;;;;;;10.25;6.90;;;3.80;99.90;;;;;;4973632;28;20073;-69
2023/01/28 11:17:33;;;;;;;8.88;6.00;;;4.40;99.90;;;;;;4974633;28;20495;-69
2023/01/28 11:20:11;;;;;;;11.65;7.03;;;4.70;99.90;;;;;;4976695;28;20038;-69
2023/01/28 11:22:43;;;;;;;11.05;7.15;;;4.50;99.90;;;;;;4990337;28;20042;-69
2023/01/28 11:25:23;;;;;;;;;;;4.40;99.90;;;;;;4993427;28;20066;-69
2023/01/28 11:27:51;;;;;;;10.13;6.63;;;4.50;99.90;;;;;;5007475;28;19917;-69
2023/01/28 11:30:39;;;;;;;9.60;6.82;;;4.30;99.90;;;;;;4993237;28;20499;-69
2023/01/28 11:33:47;;;;;;;8.50;6.38;;;4.10;99.90;;;;;;4991750;28;20034;-69
2023/01/28 11:36:16;;;;;;;14.82;7.57;;;4.00;99.90;;;;;;4988772;28;20045;-69
2023/01/28 11:38:51;;;;;;;9.73;6.40;;;3.90;99.90;;;;;;4992637;28;20092;-69
2023/01/28 11:41:21;;;;;;;10.95;6.85;;;4.00;99.90;;;;;;4976348;28;20127;-69
2023/01/28 11:43:49;;;;;;;13.02;6.47;;;4.00;99.90;;;;;;4988408;28;20049;-69
2023/01/28 11:46:38;;;;;;;8.82;6.05;;;3.80;99.90;;;;;;5011066;28;20053;-69
2023/01/28 11:49:17;;;;;;;11.27;6.40;;;3.70;99.90;;;;;;4993468;28;20060;-69
2023/01/28 11:52:03;;;;;;;12.48;7.03;;;3.60;99.90;;;;;;4990478;28;20041;-69
2023/01/28 11:54:38;;;;;;;11.32;7.40;;;3.50;99.90;;;;;;4988805;28;20045;-69
2023/01/28 11:57:23;;;;;;;10.45;7.07;;;3.60;99.90;;;;;;4988047;28;20034;-69
2023/01/28 12:00:26;;;;;;;10.90;7.00;;;3.60;99.90;;;;;;4974660;28;20045;-69
2023/01/28 12:02:58;;;;;;;12.40;7.55;;;3.80;99.90;;;;;;4993281;28;20133;-69
2023/01/28 12:05:50;;;;;;;11.30;6.93;;;4.00;99.90;;;;;;4976920;28;20038;-69
2023/01/28 12:08:23;;;;;;;10.70;7.15;;;4.20;99.90;;;;;;4993064;28;20104;-69
2023/01/28 12:10:58;;;;;;;10.35;7.00;;;4.30;99.90;;;;;;4992846;28;20113;-69
2023/01/28 12:13:45;;;;;;;13.27;7.78;;;4.40;99.90;;;;;;4994720;28;20056;-69
2023/01/28 12:16:34;;;;;;;10.02;6.35;;;4.40;99.90;;;;;;4984186;28;20749;-69
2023/01/28 12:19:18;;;;;;;8.77;5.80;;;4.50;99.90;;;;;;4991733;28;20415;-69
2023/01/28 12:22:06;;;;;;;11.30;6.50;;;4.40;99.90;;;;;;5007188;28;20046;-69
2023/01/28 12:24:46;;;;;;;11.25;6.72;;;4.40;99.90;;;;;;4991125;28;20037;-69
2023/01/28 12:27:11;;;;;;;10.40;6.60;;;4.30;99.90;;;;;;4992344;28;20042;-69
2023/01/28 12:30:19;;;;;;;7.72;5.57;;;4.30;99.90;;;;;;4993041;28;20045;-69
2023/01/28 12:32:47;;;;;;;9.43;6.60;;;4.20;99.90;;;;;;4974295;28;20053;-69
2023/01/28 12:35:32;;;;;;;12.52;7.10;;;4.30;99.90;;;;;;4991494;28;20491;-69
2023/01/28 12:38:13;;;;;;;10.18;6.57;;;4.30;99.90;;;;;;4992700;28;20045;-69
2023/01/28 12:40:45;;;;;;;11.35;6.47;;;4.20;99.90;;;;;;4994668;28;20053;-69
2023/01/28 12:43:31;;;;;;;9.30;6.28;;;4.20;99.90;;;;;;4985449;28;20041;-69
2023/01/28 12:46:04;;;;;;;11.00;6.38;;;4.20;99.90;;;;;;4975560;28;20038;-69
2023/01/28 12:48:46;;;;;;;10.50;6.40;;;4.30;99.90;;;;;;4992604;28;20042;-69
2023/01/28 12:51:26;;;;;;;10.68;7.10;;;4.30;99.90;;;;;;4990317;28;20086;-69
2023/01/28 12:54:11;;;;;;;10.63;6.30;;;4.30;99.90;;;;;;4976756;28;20048;-69
2023/01/28 12:56:42;;;;;;;14.43;6.25;;;4.30;99.90;;;;;;4991463;28;20046;-69
2023/01/28 12:59:48;;;;;;;11.00;6.35;;;4.30;99.90;;;;;;4976977;28;20381;-69
2023/01/28 13:02:34;;;;;;;9.65;6.40;;;4.30;99.90;;;;;;4980034;28;20056;-69
2023/01/28 13:05:12;;;;;;;8.73;5.53;;;4.30;99.90;;;;;;4981870;28;20278;-69
2023/01/28 13:07:45;;;;;;;9.45;5.43;;;4.20;99.90;;;;;;4976377;28;20139;-69
2023/01/28 13:10:26;;;;;;;8.75;5.65;;;4.20;99.90;;;;;;4990440;28;20077;-69
2023/01/28 13:12:53;;;;;;;8.60;5.57;;;4.30;99.90;;;;;;4976086;28;20096;-69
2023/01/28 13:15:19;;;;;;;9.82;5.97;;;4.60;99.90;;;;;;4975676;28;20475;-69
2023/01/28 13:18:00;;;;;;;10.80;6.53;;;4.80;99.90;;;;;;4991855;28;20061;-69
2023/01/28 13:20:50;;;;;;;9.80;5.78;;;4.80;99.90;;;;;;4992481;28;20068;-69
2023/01/28 13:23:25;;;;;;;10.15;5.78;;;4.80;99.90;;;;;;4991670;28;20029;-70
2023/01/28 13:25:54;;;;;;;7.22;5.45;;;4.90;99.90;;;;;;4989193;28;20129;-69
2023/01/28 13:28:31;;;;;;;8.38;5.28;;;5.00;99.90;;;;;;4976213;28;20034;-69
2023/01/28 13:31:07;;;;;;;12.25;5.60;;;5.10;99.90;;;;;;4974910;28;20085;-69
2023/01/28 13:33:39;;;;;;;7.22;5.05;;;5.00;99.90;;;;;;4990937;28;20061;-69
2023/01/28 13:36:28;;;;;;;7.97;4.60;;;5.10;99.90;;;;;;4991892;28;20092;-69
2023/01/28 13:39:01;;;;;;;6.85;4.93;;;5.00;99.90;;;;;;4998889;28;20113;-69
2023/01/28 13:41:41;;;;;;;9.32;5.43;;;5.00;99.90;;;;;;4991405;28;20049;-69
2023/01/28 13:44:26;;;;;;;9.30;5.63;;;5.10;99.90;;;;;;4975905;28;20045;-69